sensor_id;sensor_type;location;lat;lon;timestamp;P1;durP1;ratioP1;P2;durP2;ratioP2
5175;SDS011;2607;50.934;6.934;2022-10-16T00:01:03;2.40;;;2.40;;
5175;SDS011;2607;50.934;6.934;2022-10-16T00:03:40;3.13;;;2.27;;
5175;SDS011;2607;50.934;6.934;2022-10-16T00:06:06;2.03;;;1.93;;
5175;SDS011;2607;50.934;6.934;2022-10-16T00:08:33;2.60;;;2.50;;
5175;SDS011;2607;50.934;6.934;2022-10-16T00:11:07;2.30;;;2.20;;
5175;SDS011;2607;50.934;6.934;2022-10-16T00:13:35;2.50;;;2.30;;
5175;SDS011;2607;50.934;6.934;2022-10-16T00:16:02;3.53;;;2.50;;
5175;SDS011;2607;50.934;6.934;2022-10-16T00:18:28;5.27;;;2.63;;
5175;SDS011;2607;50.934;6.934;2022-10-16T00:20:55;2.30;;;2.20;;
5175;SDS011;2607;50.934;6.934;2022-10-16T00:23:25;2.00;;;1.90;;
5175;SDS011;2607;50.934;6.934;2022-10-16T00:25:55;2.40;;;2.30;;
5175;SDS011;2607;50.934;6.934;2022-10-16T00:28:24;2.80;;;2.60;;
5175;SDS011;2607;50.934;6.934;2022-10-16T00:30:50;2.20;;;2.10;;
5175;SDS011;2607;50.934;6.934;2022-10-16T00:33:16;2.10;;;2.00;;
5175;SDS011;2607;50.934;6.934;2022-10-16T00:35:42;2.30;;;2.10;;
5175;SDS011;2607;50.934;6.934;2022-10-16T00:38:08;2.37;;;1.97;;
5175;SDS011;2607;50.934;6.934;2022-10-16T00:40:34;4.70;;;1.90;;
5175;SDS011;2607;50.934;6.934;2022-10-16T00:42:59;4.33;;;2.20;;
5175;SDS011;2607;50.934;6.934;2022-10-16T00:45:25;1.70;;;1.70;;
5175;SDS011;2607;50.934;6.934;2022-10-16T00:47:51;3.07;;;2.10;;
5175;SDS011;2607;50.934;6.934;2022-10-16T00:50:22;1.63;;;1.57;;
5175;SDS011;2607;50.934;6.934;2022-10-16T00:52:54;1.50;;;1.50;;
5175;SDS011;2607;50.934;6.934;2022-10-16T00:55:21;1.80;;;1.70;;
5175;SDS011;2607;50.934;6.934;2022-10-16T00:57:47;1.50;;;1.40;;
5175;SDS011;2607;50.934;6.934;2022-10-16T01:00:15;1.80;;;1.70;;
5175;SDS011;2607;50.934;6.934;2022-10-16T01:02:43;2.37;;;2.17;;
5175;SDS011;2607;50.934;6.934;2022-10-16T01:05:09;1.83;;;1.73;;
5175;SDS011;2607;50.934;6.934;2022-10-16T01:10:30;1.70;;;1.60;;
5175;SDS011;2607;50.934;6.934;2022-10-16T01:15:53;3.00;;;2.30;;
5175;SDS011;2607;50.934;6.934;2022-10-16T01:21:12;1.80;;;1.70;;
5175;SDS011;2607;50.934;6.934;2022-10-16T01:24:11;8.20;;;1.77;;
5175;SDS011;2607;50.934;6.934;2022-10-16T01:26:46;1.90;;;1.80;;
5175;SDS011;2607;50.934;6.934;2022-10-16T01:29:41;4.40;;;2.20;;
5175;SDS011;2607;50.934;6.934;2022-10-16T01:32:27;1.60;;;1.50;;
5175;SDS011;2607;50.934;6.934;2022-10-16T01:40:45;1.73;;;1.63;;
5175;SDS011;2607;50.934;6.934;2022-10-16T01:43:15;1.90;;;1.80;;
5175;SDS011;2607;50.934;6.934;2022-10-16T01:45:44;1.60;;;1.60;;
5175;SDS011;2607;50.934;6.934;2022-10-16T01:48:15;1.77;;;1.70;;
5175;SDS011;2607;50.934;6.934;2022-10-16T01:50:44;1.30;;;1.30;;
5175;SDS011;2607;50.934;6.934;2022-10-16T01:53:23;1.60;;;1.50;;
5175;SDS011;2607;50.934;6.934;2022-10-16T01:55:50;1.43;;;1.43;;
5175;SDS011;2607;50.934;6.934;2022-10-16T01:58:19;1.60;;;1.50;;
5175;SDS011;2607;50.934;6.934;2022-10-16T02:00:46;1.73;;;1.40;;
5175;SDS011;2607;50.934;6.934;2022-10-16T02:03:12;1.50;;;1.40;;
5175;SDS011;2607;50.934;6.934;2022-10-16T02:08:19;2.20;;;2.10;;
5175;SDS011;2607;50.934;6.934;2022-10-16T02:10:45;3.43;;;1.30;;
5175;SDS011;2607;50.934;6.934;2022-10-16T02:13:12;1.70;;;1.60;;
5175;SDS011;2607;50.934;6.934;2022-10-16T02:15:48;1.73;;;1.73;;
5175;SDS011;2607;50.934;6.934;2022-10-16T02:18:14;1.97;;;1.77;;
5175;SDS011;2607;50.934;6.934;2022-10-16T02:20:43;1.50;;;1.50;;
5175;SDS011;2607;50.934;6.934;2022-10-16T02:23:17;1.67;;;1.57;;
5175;SDS011;2607;50.934;6.934;2022-10-16T02:25:49;1.60;;;1.50;;
5175;SDS011;2607;50.934;6.934;2022-10-16T02:28:18;1.70;;;1.70;;
5175;SDS011;2607;50.934;6.934;2022-10-16T02:30:56;1.40;;;1.40;;
5175;SDS011;2607;50.934;6.934;2022-10-16T02:33:24;2.23;;;1.43;;
5175;SDS011;2607;50.934;6.934;2022-10-16T02:35:51;8.60;;;1.70;;
5175;SDS011;2607;50.934;6.934;2022-10-16T02:38:18;1.30;;;1.30;;
5175;SDS011;2607;50.934;6.934;2022-10-16T02:40:46;1.40;;;1.40;;
5175;SDS011;2607;50.934;6.934;2022-10-16T02:43:11;1.30;;;1.30;;
5175;SDS011;2607;50.934;6.934;2022-10-16T02:45:37;1.47;;;1.37;;
5175;SDS011;2607;50.934;6.934;2022-10-16T02:48:03;1.20;;;1.20;;
5175;SDS011;2607;50.934;6.934;2022-10-16T02:50:29;2.30;;;1.37;;
5175;SDS011;2607;50.934;6.934;2022-10-16T02:52:54;1.50;;;1.50;;
5175;SDS011;2607;50.934;6.934;2022-10-16T02:55:20;8.33;;;1.60;;
5175;SDS011;2607;50.934;6.934;2022-10-16T02:57:46;1.53;;;1.53;;
5175;SDS011;2607;50.934;6.934;2022-10-16T03:00:12;1.40;;;1.30;;
5175;SDS011;2607;50.934;6.934;2022-10-16T03:02:39;1.30;;;1.30;;
5175;SDS011;2607;50.934;6.934;2022-10-16T03:05:05;1.60;;;1.60;;
5175;SDS011;2607;50.934;6.934;2022-10-16T03:07:31;2.40;;;2.30;;
5175;SDS011;2607;50.934;6.934;2022-10-16T03:09:56;1.90;;;1.80;;
5175;SDS011;2607;50.934;6.934;2022-10-16T03:12:25;1.90;;;1.80;;
5175;SDS011;2607;50.934;6.934;2022-10-16T03:14:51;1.60;;;1.50;;
5175;SDS011;2607;50.934;6.934;2022-10-16T03:17:16;1.63;;;1.63;;
5175;SDS011;2607;50.934;6.934;2022-10-16T03:19:42;4.27;;;1.53;;
5175;SDS011;2607;50.934;6.934;2022-10-16T03:22:08;2.20;;;1.50;;
5175;SDS011;2607;50.934;6.934;2022-10-16T03:24:33;1.80;;;1.70;;
5175;SDS011;2607;50.934;6.934;2022-10-16T03:26:59;1.23;;;1.23;;
5175;SDS011;2607;50.934;6.934;2022-10-16T03:29:25;2.20;;;1.67;;
5175;SDS011;2607;50.934;6.934;2022-10-16T03:31:51;1.70;;;1.60;;
5175;SDS011;2607;50.934;6.934;2022-10-16T03:34:16;3.43;;;1.47;;
5175;SDS011;2607;50.934;6.934;2022-10-16T03:36:42;1.40;;;1.40;;
5175;SDS011;2607;50.934;6.934;2022-10-16T03:39:07;1.60;;;1.60;;
5175;SDS011;2607;50.934;6.934;2022-10-16T03:41:33;1.90;;;1.57;;
5175;SDS011;2607;50.934;6.934;2022-10-16T03:43:58;1.40;;;1.40;;
5175;SDS011;2607;50.934;6.934;2022-10-16T03:46:24;1.37;;;1.30;;
5175;SDS011;2607;50.934;6.934;2022-10-16T03:48:49;1.30;;;1.20;;
5175;SDS011;2607;50.934;6.934;2022-10-16T03:51:15;1.20;;;1.20;;
5175;SDS011;2607;50.934;6.934;2022-10-16T03:53:40;1.63;;;1.10;;
5175;SDS011;2607;50.934;6.934;2022-10-16T03:56:06;4.43;;;1.33;;
5175;SDS011;2607;50.934;6.934;2022-10-16T03:58:32;1.53;;;1.47;;
5175;SDS011;2607;50.934;6.934;2022-10-16T04:00:57;1.43;;;1.07;;
5175;SDS011;2607;50.934;6.934;2022-10-16T04:03:23;1.60;;;1.50;;
5175;SDS011;2607;50.934;6.934;2022-10-16T04:05:48;1.10;;;1.10;;
5175;SDS011;2607;50.934;6.934;2022-10-16T04:08:14;1.73;;;1.23;;
5175;SDS011;2607;50.934;6.934;2022-10-16T04:10:42;1.30;;;1.20;;
5175;SDS011;2607;50.934;6.934;2022-10-16T04:13:08;1.30;;;1.30;;
5175;SDS011;2607;50.934;6.934;2022-10-16T04:15:34;1.50;;;1.10;;
5175;SDS011;2607;50.934;6.934;2022-10-16T04:17:59;1.33;;;1.10;;
5175;SDS011;2607;50.934;6.934;2022-10-16T04:20:25;1.00;;;1.00;;
5175;SDS011;2607;50.934;6.934;2022-10-16T04:22:50;1.30;;;1.30;;
5175;SDS011;2607;50.934;6.934;2022-10-16T04:25:16;1.37;;;1.37;;
5175;SDS011;2607;50.934;6.934;2022-10-16T04:27:41;1.23;;;1.23;;
5175;SDS011;2607;50.934;6.934;2022-10-16T04:30:07;2.50;;;1.90;;
5175;SDS011;2607;50.934;6.934;2022-10-16T04:32:33;2.03;;;1.13;;
5175;SDS011;2607;50.934;6.934;2022-10-16T04:34:59;1.30;;;1.20;;
5175;SDS011;2607;50.934;6.934;2022-10-16T04:37:25;1.30;;;1.20;;
5175;SDS011;2607;50.934;6.934;2022-10-16T04:39:51;5.13;;;1.83;;
5175;SDS011;2607;50.934;6.934;2022-10-16T04:42:17;1.40;;;1.40;;
5175;SDS011;2607;50.934;6.934;2022-10-16T04:44:43;1.30;;;1.20;;
5175;SDS011;2607;50.934;6.934;2022-10-16T04:47:08;1.70;;;1.60;;
5175;SDS011;2607;50.934;6.934;2022-10-16T04:49:34;2.00;;;1.40;;
5175;SDS011;2607;50.934;6.934;2022-10-16T04:51:59;4.97;;;2.10;;
5175;SDS011;2607;50.934;6.934;2022-10-16T04:54:25;1.60;;;1.60;;
5175;SDS011;2607;50.934;6.934;2022-10-16T04:56:50;1.70;;;1.60;;
5175;SDS011;2607;50.934;6.934;2022-10-16T04:59:17;1.50;;;1.27;;
5175;SDS011;2607;50.934;6.934;2022-10-16T05:01:44;1.47;;;1.37;;
5175;SDS011;2607;50.934;6.934;2022-10-16T05:04:10;1.73;;;1.63;;
5175;SDS011;2607;50.934;6.934;2022-10-16T05:06:36;1.77;;;1.67;;
5175;SDS011;2607;50.934;6.934;2022-10-16T05:09:02;1.70;;;1.60;;
5175;SDS011;2607;50.934;6.934;2022-10-16T05:11:28;1.20;;;1.20;;
5175;SDS011;2607;50.934;6.934;2022-10-16T05:13:54;1.43;;;1.43;;
5175;SDS011;2607;50.934;6.934;2022-10-16T05:16:20;2.40;;;2.20;;
5175;SDS011;2607;50.934;6.934;2022-10-16T05:18:45;1.50;;;1.50;;
5175;SDS011;2607;50.934;6.934;2022-10-16T05:21:11;1.93;;;1.67;;
5175;SDS011;2607;50.934;6.934;2022-10-16T05:23:37;1.50;;;1.40;;
5175;SDS011;2607;50.934;6.934;2022-10-16T05:26:02;1.47;;;1.37;;
5175;SDS011;2607;50.934;6.934;2022-10-16T05:28:28;1.70;;;1.60;;
5175;SDS011;2607;50.934;6.934;2022-10-16T05:30:55;1.60;;;1.50;;
5175;SDS011;2607;50.934;6.934;2022-10-16T05:33:21;1.60;;;1.60;;
5175;SDS011;2607;50.934;6.934;2022-10-16T05:35:48;1.93;;;1.83;;
5175;SDS011;2607;50.934;6.934;2022-10-16T05:38:14;1.30;;;1.30;;
5175;SDS011;2607;50.934;6.934;2022-10-16T05:40:40;3.37;;;1.37;;
5175;SDS011;2607;50.934;6.934;2022-10-16T05:43:06;2.10;;;1.53;;
5175;SDS011;2607;50.934;6.934;2022-10-16T05:45:31;1.80;;;1.50;;
5175;SDS011;2607;50.934;6.934;2022-10-16T05:47:57;1.70;;;1.60;;
5175;SDS011;2607;50.934;6.934;2022-10-16T05:50:23;1.80;;;1.60;;
5175;SDS011;2607;50.934;6.934;2022-10-16T05:52:48;1.47;;;1.30;;
5175;SDS011;2607;50.934;6.934;2022-10-16T05:55:14;1.83;;;1.47;;
5175;SDS011;2607;50.934;6.934;2022-10-16T05:57:40;1.50;;;1.50;;
5175;SDS011;2607;50.934;6.934;2022-10-16T06:00:05;3.83;;;3.50;;
5175;SDS011;2607;50.934;6.934;2022-10-16T06:02:31;1.43;;;1.43;;
5175;SDS011;2607;50.934;6.934;2022-10-16T06:04:57;1.70;;;1.70;;
5175;SDS011;2607;50.934;6.934;2022-10-16T06:07:23;1.87;;;1.77;;
5175;SDS011;2607;50.934;6.934;2022-10-16T06:09:49;2.20;;;1.87;;
5175;SDS011;2607;50.934;6.934;2022-10-16T06:12:18;2.30;;;1.63;;
5175;SDS011;2607;50.934;6.934;2022-10-16T06:14:44;3.10;;;1.57;;
5175;SDS011;2607;50.934;6.934;2022-10-16T06:17:12;1.70;;;1.50;;
5175;SDS011;2607;50.934;6.934;2022-10-16T06:19:38;5.43;;;2.20;;
5175;SDS011;2607;50.934;6.934;2022-10-16T06:22:04;1.87;;;1.77;;
5175;SDS011;2607;50.934;6.934;2022-10-16T06:24:30;1.83;;;1.73;;
5175;SDS011;2607;50.934;6.934;2022-10-16T06:26:55;2.50;;;2.07;;
5175;SDS011;2607;50.934;6.934;2022-10-16T06:29:21;1.67;;;1.67;;
5175;SDS011;2607;50.934;6.934;2022-10-16T06:31:46;1.50;;;1.50;;
5175;SDS011;2607;50.934;6.934;2022-10-16T06:34:12;2.80;;;1.53;;
5175;SDS011;2607;50.934;6.934;2022-10-16T06:36:38;5.77;;;1.73;;
5175;SDS011;2607;50.934;6.934;2022-10-16T06:39:04;3.20;;;1.90;;
5175;SDS011;2607;50.934;6.934;2022-10-16T06:41:32;3.47;;;3.00;;
5175;SDS011;2607;50.934;6.934;2022-10-16T06:43:58;1.87;;;1.77;;
5175;SDS011;2607;50.934;6.934;2022-10-16T06:46:24;2.63;;;1.70;;
5175;SDS011;2607;50.934;6.934;2022-10-16T06:48:50;2.93;;;1.83;;
5175;SDS011;2607;50.934;6.934;2022-10-16T06:51:17;2.17;;;2.13;;
5175;SDS011;2607;50.934;6.934;2022-10-16T06:53:50;2.17;;;2.00;;
5175;SDS011;2607;50.934;6.934;2022-10-16T06:56:25;2.60;;;2.40;;
5175;SDS011;2607;50.934;6.934;2022-10-16T06:58:52;3.43;;;1.80;;
5175;SDS011;2607;50.934;6.934;2022-10-16T07:01:18;2.40;;;2.20;;
5175;SDS011;2607;50.934;6.934;2022-10-16T07:03:45;1.90;;;1.80;;
5175;SDS011;2607;50.934;6.934;2022-10-16T07:06:13;2.00;;;1.80;;
5175;SDS011;2607;50.934;6.934;2022-10-16T07:08:41;2.63;;;1.70;;
5175;SDS011;2607;50.934;6.934;2022-10-16T07:11:09;1.67;;;1.57;;
5175;SDS011;2607;50.934;6.934;2022-10-16T07:13:36;1.80;;;1.70;;
5175;SDS011;2607;50.934;6.934;2022-10-16T07:18:32;1.90;;;1.80;;
5175;SDS011;2607;50.934;6.934;2022-10-16T07:21:08;1.80;;;1.70;;
5175;SDS011;2607;50.934;6.934;2022-10-16T07:23:36;1.97;;;1.40;;
5175;SDS011;2607;50.934;6.934;2022-10-16T07:26:02;2.17;;;2.07;;
5175;SDS011;2607;50.934;6.934;2022-10-16T07:28:29;3.80;;;1.60;;
5175;SDS011;2607;50.934;6.934;2022-10-16T07:30:59;1.70;;;1.50;;
5175;SDS011;2607;50.934;6.934;2022-10-16T07:33:26;1.50;;;1.40;;
5175;SDS011;2607;50.934;6.934;2022-10-16T07:35:52;1.30;;;1.30;;
5175;SDS011;2607;50.934;6.934;2022-10-16T07:38:19;1.20;;;1.20;;
5175;SDS011;2607;50.934;6.934;2022-10-16T07:40:46;2.07;;;1.20;;
5175;SDS011;2607;50.934;6.934;2022-10-16T07:43:12;1.47;;;1.37;;
5175;SDS011;2607;50.934;6.934;2022-10-16T07:45:46;2.20;;;2.10;;
5175;SDS011;2607;50.934;6.934;2022-10-16T07:48:13;2.60;;;2.40;;
5175;SDS011;2607;50.934;6.934;2022-10-16T07:50:39;3.10;;;2.23;;
5175;SDS011;2607;50.934;6.934;2022-10-16T07:53:04;2.80;;;2.57;;
5175;SDS011;2607;50.934;6.934;2022-10-16T07:55:30;3.47;;;1.93;;
5175;SDS011;2607;50.934;6.934;2022-10-16T07:57:55;1.80;;;1.80;;
5175;SDS011;2607;50.934;6.934;2022-10-16T08:00:21;3.63;;;2.20;;
5175;SDS011;2607;50.934;6.934;2022-10-16T08:02:46;1.50;;;1.50;;
5175;SDS011;2607;50.934;6.934;2022-10-16T08:05:12;1.83;;;1.83;;
5175;SDS011;2607;50.934;6.934;2022-10-16T08:07:37;1.83;;;1.73;;
5175;SDS011;2607;50.934;6.934;2022-10-16T08:10:03;1.57;;;1.50;;
5175;SDS011;2607;50.934;6.934;2022-10-16T08:12:29;8.03;;;2.00;;
5175;SDS011;2607;50.934;6.934;2022-10-16T08:14:54;2.30;;;1.53;;
5175;SDS011;2607;50.934;6.934;2022-10-16T08:17:20;2.03;;;1.63;;
5175;SDS011;2607;50.934;6.934;2022-10-16T08:19:46;1.47;;;1.40;;
5175;SDS011;2607;50.934;6.934;2022-10-16T08:22:12;4.93;;;4.13;;
5175;SDS011;2607;50.934;6.934;2022-10-16T08:24:38;2.30;;;2.03;;
5175;SDS011;2607;50.934;6.934;2022-10-16T08:27:04;2.23;;;2.10;;
5175;SDS011;2607;50.934;6.934;2022-10-16T08:29:30;3.20;;;3.00;;
5175;SDS011;2607;50.934;6.934;2022-10-16T08:31:56;3.00;;;2.70;;
5175;SDS011;2607;50.934;6.934;2022-10-16T08:34:21;2.70;;;2.60;;
5175;SDS011;2607;50.934;6.934;2022-10-16T08:36:47;2.50;;;2.40;;
5175;SDS011;2607;50.934;6.934;2022-10-16T08:39:12;2.33;;;2.20;;
5175;SDS011;2607;50.934;6.934;2022-10-16T08:49:41;2.53;;;1.77;;
5175;SDS011;2607;50.934;6.934;2022-10-16T08:52:12;1.67;;;1.67;;
5175;SDS011;2607;50.934;6.934;2022-10-16T08:54:41;1.53;;;1.53;;
5175;SDS011;2607;50.934;6.934;2022-10-16T08:57:12;2.40;;;2.30;;
5175;SDS011;2607;50.934;6.934;2022-10-16T08:59:41;2.07;;;1.97;;
5175;SDS011;2607;50.934;6.934;2022-10-16T09:04:54;1.90;;;1.67;;
5175;SDS011;2607;50.934;6.934;2022-10-16T09:10:34;1.77;;;1.67;;
5175;SDS011;2607;50.934;6.934;2022-10-16T09:21:30;1.73;;;1.43;;
5175;SDS011;2607;50.934;6.934;2022-10-16T09:24:06;1.10;;;1.10;;
5175;SDS011;2607;50.934;6.934;2022-10-16T09:26:43;1.20;;;1.20;;
5175;SDS011;2607;50.934;6.934;2022-10-16T09:29:11;1.17;;;1.17;;
5175;SDS011;2607;50.934;6.934;2022-10-16T09:31:41;1.80;;;1.17;;
5175;SDS011;2607;50.934;6.934;2022-10-16T09:34:11;3.30;;;3.00;;
5175;SDS011;2607;50.934;6.934;2022-10-16T09:36:46;1.00;;;1.00;;
5175;SDS011;2607;50.934;6.934;2022-10-16T09:39:12;2.20;;;1.10;;
5175;SDS011;2607;50.934;6.934;2022-10-16T09:41:41;0.97;;;0.97;;
5175;SDS011;2607;50.934;6.934;2022-10-16T09:44:19;1.00;;;0.87;;
5175;SDS011;2607;50.934;6.934;2022-10-16T09:47:02;1.03;;;0.93;;
5175;SDS011;2607;50.934;6.934;2022-10-16T09:49:29;1.10;;;1.10;;
5175;SDS011;2607;50.934;6.934;2022-10-16T09:52:04;2.83;;;1.20;;
5175;SDS011;2607;50.934;6.934;2022-10-16T09:54:37;2.30;;;1.00;;
5175;SDS011;2607;50.934;6.934;2022-10-16T09:57:13;1.53;;;0.90;;
5175;SDS011;2607;50.934;6.934;2022-10-16T09:59:48;1.70;;;0.80;;
5175;SDS011;2607;50.934;6.934;2022-10-16T10:02:30;0.90;;;0.90;;
5175;SDS011;2607;50.934;6.934;2022-10-16T10:04:59;1.73;;;1.10;;
5175;SDS011;2607;50.934;6.934;2022-10-16T10:07:31;1.10;;;1.10;;
5175;SDS011;2607;50.934;6.934;2022-10-16T10:10:01;1.37;;;0.97;;
5175;SDS011;2607;50.934;6.934;2022-10-16T10:12:32;1.57;;;0.90;;
5175;SDS011;2607;50.934;6.934;2022-10-16T10:15:04;1.33;;;1.00;;
5175;SDS011;2607;50.934;6.934;2022-10-16T10:17:44;1.00;;;0.83;;
5175;SDS011;2607;50.934;6.934;2022-10-16T10:22:46;2.93;;;1.13;;
5175;SDS011;2607;50.934;6.934;2022-10-16T10:30:32;1.63;;;1.23;;
5175;SDS011;2607;50.934;6.934;2022-10-16T10:35:46;1.10;;;1.10;;
5175;SDS011;2607;50.934;6.934;2022-10-16T10:38:39;2.87;;;1.37;;
5175;SDS011;2607;50.934;6.934;2022-10-16T10:47:05;1.67;;;1.13;;
5175;SDS011;2607;50.934;6.934;2022-10-16T10:52:27;2.00;;;0.90;;
5175;SDS011;2607;50.934;6.934;2022-10-16T11:08:52;0.83;;;0.83;;
5175;SDS011;2607;50.934;6.934;2022-10-16T11:11:25;1.10;;;1.00;;
5175;SDS011;2607;50.934;6.934;2022-10-16T11:13:59;1.20;;;1.10;;
5175;SDS011;2607;50.934;6.934;2022-10-16T11:16:57;3.17;;;1.17;;
5175;SDS011;2607;50.934;6.934;2022-10-16T11:19:47;1.07;;;1.07;;
5175;SDS011;2607;50.934;6.934;2022-10-16T11:24:55;0.93;;;0.93;;
5175;SDS011;2607;50.934;6.934;2022-10-16T11:27:43;1.43;;;1.33;;
5175;SDS011;2607;50.934;6.934;2022-10-16T11:30:23;1.20;;;1.20;;
5175;SDS011;2607;50.934;6.934;2022-10-16T11:33:00;1.30;;;1.30;;
5175;SDS011;2607;50.934;6.934;2022-10-16T11:35:38;2.80;;;2.00;;
5175;SDS011;2607;50.934;6.934;2022-10-16T11:38:09;1.50;;;1.40;;
5175;SDS011;2607;50.934;6.934;2022-10-16T11:40:40;1.17;;;1.07;;
5175;SDS011;2607;50.934;6.934;2022-10-16T11:46:12;0.97;;;0.97;;
5175;SDS011;2607;50.934;6.934;2022-10-16T11:48:48;1.20;;;1.10;;
5175;SDS011;2607;50.934;6.934;2022-10-16T11:54:16;1.33;;;1.23;;
5175;SDS011;2607;50.934;6.934;2022-10-16T11:57:10;1.23;;;1.13;;
5175;SDS011;2607;50.934;6.934;2022-10-16T11:59:42;1.97;;;1.87;;
5175;SDS011;2607;50.934;6.934;2022-10-16T12:08:04;1.90;;;1.80;;
5175;SDS011;2607;50.934;6.934;2022-10-16T12:10:36;1.30;;;1.20;;
5175;SDS011;2607;50.934;6.934;2022-10-16T12:13:48;1.80;;;1.60;;
5175;SDS011;2607;50.934;6.934;2022-10-16T12:16:03;2.63;;;1.20;;
5175;SDS011;2607;50.934;6.934;2022-10-16T12:18:39;3.87;;;1.13;;
5175;SDS011;2607;50.934;6.934;2022-10-16T12:21:05;2.47;;;1.23;;
5175;SDS011;2607;50.934;6.934;2022-10-16T12:23:33;1.33;;;1.23;;
5175;SDS011;2607;50.934;6.934;2022-10-16T12:26:03;1.50;;;0.80;;
5175;SDS011;2607;50.934;6.934;2022-10-16T12:28:30;1.73;;;0.80;;
5175;SDS011;2607;50.934;6.934;2022-10-16T12:31:04;3.90;;;0.90;;
5175;SDS011;2607;50.934;6.934;2022-10-16T12:33:33;1.47;;;0.90;;
5175;SDS011;2607;50.934;6.934;2022-10-16T12:36:13;1.93;;;1.40;;
5175;SDS011;2607;50.934;6.934;2022-10-16T12:38:45;4.23;;;2.63;;
5175;SDS011;2607;50.934;6.934;2022-10-16T12:41:12;2.70;;;1.00;;
5175;SDS011;2607;50.934;6.934;2022-10-16T12:43:52;2.97;;;1.27;;
5175;SDS011;2607;50.934;6.934;2022-10-16T12:48:43;2.27;;;2.00;;
5175;SDS011;2607;50.934;6.934;2022-10-16T12:53:58;2.20;;;2.10;;
5175;SDS011;2607;50.934;6.934;2022-10-16T13:22:12;1.40;;;1.40;;
5175;SDS011;2607;50.934;6.934;2022-10-16T13:24:59;3.37;;;2.20;;
5175;SDS011;2607;50.934;6.934;2022-10-16T13:27:41;5.33;;;3.83;;
5175;SDS011;2607;50.934;6.934;2022-10-16T13:30:19;2.40;;;2.20;;
5175;SDS011;2607;50.934;6.934;2022-10-16T13:32:48;2.20;;;2.10;;
5175;SDS011;2607;50.934;6.934;2022-10-16T13:35:25;2.20;;;2.00;;
5175;SDS011;2607;50.934;6.934;2022-10-16T13:38:02;3.40;;;3.00;;
5175;SDS011;2607;50.934;6.934;2022-10-16T13:40:47;2.40;;;2.20;;
5175;SDS011;2607;50.934;6.934;2022-10-16T13:43:22;8.97;;;6.87;;
5175;SDS011;2607;50.934;6.934;2022-10-16T13:48:41;5.03;;;4.53;;
5175;SDS011;2607;50.934;6.934;2022-10-16T13:51:12;3.67;;;3.40;;
5175;SDS011;2607;50.934;6.934;2022-10-16T13:53:39;2.40;;;2.30;;
5175;SDS011;2607;50.934;6.934;2022-10-16T13:56:07;3.80;;;2.93;;
5175;SDS011;2607;50.934;6.934;2022-10-16T13:58:38;3.83;;;3.30;;
5175;SDS011;2607;50.934;6.934;2022-10-16T14:01:04;3.30;;;3.10;;
5175;SDS011;2607;50.934;6.934;2022-10-16T14:03:39;4.40;;;4.00;;
5175;SDS011;2607;50.934;6.934;2022-10-16T14:06:10;3.03;;;2.83;;
5175;SDS011;2607;50.934;6.934;2022-10-16T14:09:41;2.20;;;2.10;;
5175;SDS011;2607;50.934;6.934;2022-10-16T14:11:44;3.00;;;2.27;;
5175;SDS011;2607;50.934;6.934;2022-10-16T14:14:13;4.20;;;3.80;;
5175;SDS011;2607;50.934;6.934;2022-10-16T14:16:40;5.90;;;2.70;;
5175;SDS011;2607;50.934;6.934;2022-10-16T14:19:44;2.40;;;2.20;;
5175;SDS011;2607;50.934;6.934;2022-10-16T14:22:00;3.90;;;3.70;;
5175;SDS011;2607;50.934;6.934;2022-10-16T14:26:56;4.37;;;3.30;;
5175;SDS011;2607;50.934;6.934;2022-10-16T14:29:22;2.77;;;2.60;;
5175;SDS011;2607;50.934;6.934;2022-10-16T14:32:20;2.83;;;2.60;;
5175;SDS011;2607;50.934;6.934;2022-10-16T14:34:52;2.40;;;2.30;;
5175;SDS011;2607;50.934;6.934;2022-10-16T14:37:28;4.00;;;3.60;;
5175;SDS011;2607;50.934;6.934;2022-10-16T14:39:55;3.60;;;3.30;;
5175;SDS011;2607;50.934;6.934;2022-10-16T14:42:22;4.00;;;3.70;;
5175;SDS011;2607;50.934;6.934;2022-10-16T14:44:50;5.50;;;4.33;;
5175;SDS011;2607;50.934;6.934;2022-10-16T14:47:22;4.17;;;3.87;;
5175;SDS011;2607;50.934;6.934;2022-10-16T14:49:51;3.73;;;3.43;;
5175;SDS011;2607;50.934;6.934;2022-10-16T14:52:19;4.03;;;2.83;;
5175;SDS011;2607;50.934;6.934;2022-10-16T14:54:49;3.23;;;2.93;;
5175;SDS011;2607;50.934;6.934;2022-10-16T14:57:18;8.90;;;7.00;;
5175;SDS011;2607;50.934;6.934;2022-10-16T14:59:47;3.93;;;3.30;;
5175;SDS011;2607;50.934;6.934;2022-10-16T15:02:32;6.33;;;4.33;;
5175;SDS011;2607;50.934;6.934;2022-10-16T15:07:48;8.60;;;6.20;;
5175;SDS011;2607;50.934;6.934;2022-10-16T15:10:16;9.53;;;6.10;;
5175;SDS011;2607;50.934;6.934;2022-10-16T15:12:42;10.93;;;7.43;;
5175;SDS011;2607;50.934;6.934;2022-10-16T15:15:21;3.13;;;2.93;;
5175;SDS011;2607;50.934;6.934;2022-10-16T15:17:49;3.90;;;3.60;;
5175;SDS011;2607;50.934;6.934;2022-10-16T15:20:18;4.70;;;4.10;;
5175;SDS011;2607;50.934;6.934;2022-10-16T15:22:44;3.17;;;2.87;;
5175;SDS011;2607;50.934;6.934;2022-10-16T15:28:06;3.13;;;2.93;;
5175;SDS011;2607;50.934;6.934;2022-10-16T15:30:33;4.60;;;4.20;;
5175;SDS011;2607;50.934;6.934;2022-10-16T15:32:59;6.70;;;5.50;;
5175;SDS011;2607;50.934;6.934;2022-10-16T15:35:25;6.43;;;5.20;;
5175;SDS011;2607;50.934;6.934;2022-10-16T15:37:51;8.37;;;7.23;;
5175;SDS011;2607;50.934;6.934;2022-10-16T15:40:17;11.57;;;10.00;;
5175;SDS011;2607;50.934;6.934;2022-10-16T15:42:44;8.50;;;7.60;;
5175;SDS011;2607;50.934;6.934;2022-10-16T15:45:10;5.30;;;4.80;;
5175;SDS011;2607;50.934;6.934;2022-10-16T15:47:36;5.00;;;4.60;;
5175;SDS011;2607;50.934;6.934;2022-10-16T15:50:02;4.13;;;3.83;;
5175;SDS011;2607;50.934;6.934;2022-10-16T15:52:28;4.90;;;4.50;;
5175;SDS011;2607;50.934;6.934;2022-10-16T15:54:56;4.90;;;4.50;;
5175;SDS011;2607;50.934;6.934;2022-10-16T15:57:22;12.70;;;3.77;;
5175;SDS011;2607;50.934;6.934;2022-10-16T15:59:48;3.53;;;3.23;;
5175;SDS011;2607;50.934;6.934;2022-10-16T16:02:14;3.23;;;3.03;;
5175;SDS011;2607;50.934;6.934;2022-10-16T16:04:40;3.60;;;3.40;;
5175;SDS011;2607;50.934;6.934;2022-10-16T16:07:06;4.73;;;3.33;;
5175;SDS011;2607;50.934;6.934;2022-10-16T16:09:34;2.10;;;2.00;;
5175;SDS011;2607;50.934;6.934;2022-10-16T16:12:00;6.07;;;5.53;;
5175;SDS011;2607;50.934;6.934;2022-10-16T16:14:26;8.27;;;6.67;;
5175;SDS011;2607;50.934;6.934;2022-10-16T16:16:56;5.30;;;3.97;;
5175;SDS011;2607;50.934;6.934;2022-10-16T16:19:22;7.50;;;5.70;;
5175;SDS011;2607;50.934;6.934;2022-10-16T16:21:48;5.80;;;4.70;;
5175;SDS011;2607;50.934;6.934;2022-10-16T16:24:14;3.90;;;2.90;;
5175;SDS011;2607;50.934;6.934;2022-10-16T16:26:39;4.80;;;4.40;;
5175;SDS011;2607;50.934;6.934;2022-10-16T16:29:09;4.67;;;4.27;;
5175;SDS011;2607;50.934;6.934;2022-10-16T16:31:38;5.70;;;5.10;;
5175;SDS011;2607;50.934;6.934;2022-10-16T16:34:04;2.93;;;2.73;;
5175;SDS011;2607;50.934;6.934;2022-10-16T16:36:29;6.03;;;5.47;;
5175;SDS011;2607;50.934;6.934;2022-10-16T16:38:55;7.23;;;6.50;;
5175;SDS011;2607;50.934;6.934;2022-10-16T16:41:22;4.33;;;4.00;;
5175;SDS011;2607;50.934;6.934;2022-10-16T16:43:50;8.20;;;5.87;;
5175;SDS011;2607;50.934;6.934;2022-10-16T16:46:16;7.43;;;5.17;;
5175;SDS011;2607;50.934;6.934;2022-10-16T16:48:42;11.73;;;9.33;;
5175;SDS011;2607;50.934;6.934;2022-10-16T16:51:12;3.37;;;3.07;;
5175;SDS011;2607;50.934;6.934;2022-10-16T16:53:41;1.90;;;1.80;;
5175;SDS011;2607;50.934;6.934;2022-10-16T16:56:07;8.60;;;7.40;;
5175;SDS011;2607;50.934;6.934;2022-10-16T16:58:33;3.03;;;2.83;;
5175;SDS011;2607;50.934;6.934;2022-10-16T17:00:59;4.80;;;3.30;;
5175;SDS011;2607;50.934;6.934;2022-10-16T17:03:30;3.17;;;2.93;;
5175;SDS011;2607;50.934;6.934;2022-10-16T17:06:01;7.03;;;6.13;;
5175;SDS011;2607;50.934;6.934;2022-10-16T17:08:29;3.77;;;3.43;;
5175;SDS011;2607;50.934;6.934;2022-10-16T17:10:55;4.50;;;3.70;;
5175;SDS011;2607;50.934;6.934;2022-10-16T17:13:25;5.70;;;5.00;;
5175;SDS011;2607;50.934;6.934;2022-10-16T17:15:53;6.23;;;4.03;;
5175;SDS011;2607;50.934;6.934;2022-10-16T17:18:19;3.13;;;2.93;;
5175;SDS011;2607;50.934;6.934;2022-10-16T17:20:46;3.13;;;2.93;;
5175;SDS011;2607;50.934;6.934;2022-10-16T17:23:12;2.83;;;2.63;;
5175;SDS011;2607;50.934;6.934;2022-10-16T17:25:39;6.70;;;5.33;;
5175;SDS011;2607;50.934;6.934;2022-10-16T17:28:06;3.83;;;3.50;;
5175;SDS011;2607;50.934;6.934;2022-10-16T17:30:35;7.00;;;6.30;;
5175;SDS011;2607;50.934;6.934;2022-10-16T17:33:02;17.97;;;11.93;;
5175;SDS011;2607;50.934;6.934;2022-10-16T17:35:29;3.30;;;3.03;;
5175;SDS011;2607;50.934;6.934;2022-10-16T17:37:55;4.10;;;3.80;;